Time;durP1;ratioP1;P1;durP2;ratioP2;P2;SDS_P1;SDS_P2;PMS_P1;PMS_P2;Temp;Humidity;BMP_temperature;BMP_pressure;BME280_temperature;BME280_humidity;BME280_pressure;Samples;Min_cycle;Max_cycle;Signal;HPM_P1;HPM_P2
2022/12/29 00:02:09;;;;;;;9.13;7.25;;;10.50;99.90;;;;;;5062953;28;20044;-76
2022/12/29 00:04:35;;;;;;;11.30;8.13;;;10.50;99.90;;;;;;5054403;28;20156;-75
2022/12/29 00:07:00;;;;;;;9.30;7.18;;;10.40;99.90;;;;;;5072296;28;20788;-76
2022/12/29 00:09:26;;;;;;;11.55;6.95;;;10.40;99.90;;;;;;5062345;28;20465;-76
2022/12/29 00:11:52;;;;;;;10.02;7.70;;;10.40;99.90;;;;;;5055950;28;20037;-75
2022/12/29 00:17:02;;;;;;;10.20;7.65;;;10.40;99.90;;;;;;5061197;28;20127;-76
2022/12/29 00:36:23;;;;;;;9.93;7.25;;;10.60;99.90;;;;;;5065284;28;20044;-76
2022/12/29 00:44:34;;;;;;;8.70;6.80;;;10.70;99.90;;;;;;5035698;28;20044;-75
2022/12/29 00:47:04;;;;;;;8.93;6.97;;;10.60;99.90;;;;;;5046962;28;20127;-76
2022/12/29 00:49:30;;;;;;;10.68;7.40;;;10.70;99.90;;;;;;5065246;28;20040;-75
2022/12/29 00:52:04;;;;;;;10.30;6.78;;;10.70;99.90;;;;;;5064148;28;20139;-76
2022/12/29 00:54:32;;;;;;;9.05;6.57;;;10.70;99.90;;;;;;5063945;28;20162;-76
2022/12/29 00:56:58;;;;;;;9.68;7.30;;;10.70;99.90;;;;;;5064427;28;20964;-75
2022/12/29 00:59:24;;;;;;;9.65;7.47;;;10.70;99.90;;;;;;5050320;28;20480;-75
2022/12/29 01:01:51;;;;;;;7.90;5.68;;;10.70;99.90;;;;;;5065496;28;20040;-76
2022/12/29 01:04:17;;;;;;;10.07;7.65;;;10.70;99.90;;;;;;5067537;28;20044;-76
2022/12/29 01:06:43;;;;;;;9.48;6.90;;;10.70;99.90;;;;;;5065382;28;20067;-75
2022/12/29 01:11:54;;;;;;;10.10;7.38;;;10.70;99.90;;;;;;5062554;28;20044;-75
2022/12/29 01:14:21;;;;;;;9.95;7.00;;;10.70;99.90;;;;;;5065264;28;20085;-75
2022/12/29 01:16:47;;;;;;;8.95;6.60;;;10.70;99.90;;;;;;5064039;28;20044;-75
2022/12/29 01:19:14;;;;;;;8.90;6.90;;;10.70;99.90;;;;;;5048503;28;20121;-76
2022/12/29 01:21:40;;;;;;;8.90;6.78;;;10.70;99.90;;;;;;5067398;28;20086;-76
2022/12/29 01:24:05;;;;;;;10.55;6.45;;;10.70;99.90;;;;;;5043850;28;20675;-75
2022/12/29 01:26:31;;;;;;;10.68;7.13;;;10.70;99.90;;;;;;5062916;28;20044;-75
2022/12/29 01:28:57;;;;;;;8.63;6.35;;;10.70;99.90;;;;;;5045233;28;20047;-76
2022/12/29 01:31:22;;;;;;;9.57;6.90;;;10.70;99.90;;;;;;5065362;28;20560;-75
2022/12/29 01:33:48;;;;;;;9.40;6.15;;;10.70;99.90;;;;;;5043803;28;20044;-75
2022/12/29 01:36:15;;;;;;;8.45;6.35;;;10.70;99.90;;;;;;5048115;28;20041;-76
2022/12/29 01:38:41;;;;;;;10.88;7.50;;;10.70;99.90;;;;;;5046474;28;20412;-75
2022/12/29 01:41:10;;;;;;;9.70;7.07;;;10.70;99.90;;;;;;5043284;28;20050;-76
2022/12/29 01:43:49;;;;;;;10.30;7.50;;;10.70;99.90;;;;;;5065829;28;20180;-76
2022/12/29 01:46:48;;;;;;;10.90;7.15;;;10.60;99.90;;;;;;5061465;28;20411;-76
2022/12/29 01:49:26;;;;;;;10.27;7.68;;;10.60;99.90;;;;;;5060740;28;20378;-75
2022/12/29 01:51:55;;;;;;;12.10;8.32;;;10.60;99.90;;;;;;5064732;28;20094;-76
2022/12/29 01:54:35;;;;;;;11.80;8.05;;;10.50;99.90;;;;;;5062398;28;20087;-76
2022/12/29 01:57:05;;;;;;;11.98;8.20;;;10.50;99.90;;;;;;5065969;28;20075;-76
2022/12/29 01:59:40;;;;;;;12.18;7.75;;;10.50;99.90;;;;;;5072026;28;20051;-75
2022/12/29 02:02:07;;;;;;;15.45;8.10;;;10.40;99.90;;;;;;5046996;28;20389;-75
2022/12/29 02:04:33;;;;;;;9.68;7.60;;;10.30;99.90;;;;;;5047255;28;20078;-75
2022/12/29 02:07:07;;;;;;;10.48;7.20;;;10.30;99.90;;;;;;5062170;28;20052;-75
2022/12/29 02:09:33;;;;;;;10.38;6.93;;;10.30;99.90;;;;;;5043389;28;20102;-76
2022/12/29 02:12:00;;;;;;;8.82;6.72;;;10.30;99.90;;;;;;5061306;28;20569;-75
2022/12/29 02:14:26;;;;;;;9.48;6.05;;;10.20;99.90;;;;;;5063623;28;20063;-75
2022/12/29 02:17:00;;;;;;;10.98;6.22;;;10.20;99.90;;;;;;5047365;28;20583;-75
2022/12/29 02:20:01;;;;;;;9.80;5.18;;;10.30;99.90;;;;;;5064017;28;20569;-75
2022/12/29 02:22:33;;;;;;;7.40;5.22;;;10.30;99.90;;;;;;5075050;28;20440;-75
2022/12/29 02:25:50;;;;;;;7.25;5.57;;;10.40;99.90;;;;;;5045913;28;20072;-76
2022/12/29 02:28:30;;;;;;;6.20;4.45;;;10.40;99.90;;;;;;4989128;28;20073;-76
2022/12/29 02:31:04;;;;;;;7.13;4.88;;;10.50;99.90;;;;;;5052935;28;20060;-76
2022/12/29 02:33:32;;;;;;;8.30;5.50;;;10.50;99.90;;;;;;5063277;28;20044;-75
2022/12/29 02:36:14;;;;;;;7.88;4.95;;;10.50;99.90;;;;;;5058065;28;20079;-76
2022/12/29 02:39:12;;;;;;;6.93;4.50;;;10.50;99.90;;;;;;5064797;28;20153;-75
2022/12/29 02:41:50;;;;;;;7.15;5.00;;;10.50;99.90;;;;;;5046694;28;20052;-75
2022/12/29 02:44:20;;;;;;;8.00;4.57;;;10.60;99.90;;;;;;5062779;28;20084;-75
2022/12/29 02:46:55;;;;;;;8.52;4.60;;;10.50;99.90;;;;;;5047791;28;20090;-76
2022/12/29 02:49:32;;;;;;;7.45;4.70;;;10.50;99.90;;;;;;5063948;28;20040;-75
2022/12/29 02:52:06;;;;;;;6.80;4.40;;;10.50;99.90;;;;;;5058552;28;20041;-75
2022/12/29 02:54:41;;;;;;;6.32;4.30;;;10.60;99.90;;;;;;5045044;28;20047;-76
2022/12/29 02:57:15;;;;;;;8.27;4.30;;;10.50;99.90;;;;;;5062630;28;20039;-76
2022/12/29 02:59:43;;;;;;;5.32;3.67;;;10.60;99.90;;;;;;5045102;28;20041;-76
2022/12/29 03:02:21;;;;;;;6.57;3.70;;;10.60;99.90;;;;;;5062981;28;20044;-76
2022/12/29 03:04:52;;;;;;;5.25;3.30;;;10.60;99.90;;;;;;5063279;28;20048;-75
2022/12/29 03:07:30;;;;;;;5.82;4.00;;;10.60;99.90;;;;;;5060595;28;20044;-75
2022/12/29 03:10:04;;;;;;;4.82;3.40;;;10.60;99.90;;;;;;5063414;28;20052;-75
2022/12/29 03:16:02;;;;;;;3.22;2.90;;;10.50;99.90;;;;;;5055988;28;20048;-75
2022/12/29 03:18:52;;;;;;;3.30;2.55;;;10.60;99.90;;;;;;5003849;28;20123;-76
2022/12/29 03:24:29;;;;;;;5.45;3.08;;;10.70;99.90;;;;;;5071008;28;20048;-75
2022/12/29 03:26:58;;;;;;;6.20;2.90;;;10.70;99.90;;;;;;5043277;28;21215;-75
2022/12/29 03:29:25;;;;;;;4.72;2.90;;;10.70;99.90;;;;;;5041496;28;20036;-75
2022/12/29 03:31:54;;;;;;;4.50;2.63;;;10.60;99.90;;;;;;5057496;28;20041;-76
2022/12/29 03:34:21;;;;;;;5.35;3.00;;;10.50;99.90;;;;;;5062962;28;20044;-75
2022/12/29 03:36:58;;;;;;;4.97;2.38;;;10.50;99.90;;;;;;5059144;28;20048;-75
2022/12/29 03:39:24;;;;;;;4.75;2.40;;;10.40;99.90;;;;;;5041407;28;20539;-75
2022/12/29 03:41:57;;;;;;;4.63;2.50;;;10.40;99.90;;;;;;5078133;28;20060;-75
2022/12/29 03:44:32;;;;;;;9.93;2.92;;;10.30;99.90;;;;;;5055764;28;20044;-75
2022/12/29 03:46:58;;;;;;;8.80;2.92;;;10.30;99.90;;;;;;5062277;28;20055;-75
2022/12/29 03:49:23;;;;;;;7.43;2.97;;;10.30;99.90;;;;;;5063549;28;20040;-75
2022/12/29 03:51:49;;;;;;;5.25;2.92;;;10.30;99.90;;;;;;5044323;28;20378;-75
2022/12/29 03:54:15;;;;;;;5.30;2.80;;;10.30;99.90;;;;;;5060437;28;20457;-75
2022/12/29 03:56:40;;;;;;;5.90;2.90;;;10.30;99.90;;;;;;5063550;28;20040;-75
2022/12/29 03:59:06;;;;;;;5.50;3.00;;;10.30;99.90;;;;;;5043074;28;20188;-75
2022/12/29 04:01:31;;;;;;;6.85;2.80;;;10.30;99.90;;;;;;5044335;28;20110;-75
2022/12/29 04:03:57;;;;;;;4.80;3.03;;;10.20;99.90;;;;;;5062582;28;20040;-75
2022/12/29 04:06:23;;;;;;;5.35;2.75;;;10.30;99.90;;;;;;5044532;28;20040;-75
2022/12/29 04:08:49;;;;;;;5.65;3.10;;;10.30;99.90;;;;;;5059334;28;20518;-75
2022/12/29 04:11:14;;;;;;;6.22;3.40;;;10.30;99.90;;;;;;5043275;28;20032;-75
2022/12/29 04:13:40;;;;;;;7.00;2.88;;;10.40;99.90;;;;;;5047038;28;20037;-75
2022/12/29 04:16:06;;;;;;;4.10;2.67;;;10.40;99.90;;;;;;5046338;28;20051;-75
2022/12/29 04:18:32;;;;;;;7.50;2.80;;;10.40;99.90;;;;;;5041153;28;20063;-75
2022/12/29 04:21:00;;;;;;;3.88;2.25;;;10.40;99.90;;;;;;5044108;28;20052;-75
2022/12/29 04:23:44;;;;;;;6.47;2.22;;;10.40;99.90;;;;;;5055716;28;20563;-75
2022/12/29 04:26:10;;;;;;;5.00;2.10;;;10.30;99.90;;;;;;5044709;28;20075;-75
2022/12/29 04:28:36;;;;;;;3.85;2.25;;;10.30;99.90;;;;;;5061074;28;20068;-76
2022/12/29 04:31:03;;;;;;;5.30;2.10;;;10.40;99.90;;;;;;5053670;28;20458;-75
2022/12/29 04:33:29;;;;;;;6.93;2.17;;;10.40;99.90;;;;;;5056487;28;20493;-75
2022/12/29 04:35:55;;;;;;;7.75;2.15;;;10.30;99.90;;;;;;5043420;28;20045;-75
2022/12/29 04:38:22;;;;;;;5.38;2.30;;;10.30;99.90;;;;;;5055219;28;20037;-75
2022/12/29 04:40:48;;;;;;;4.35;1.73;;;10.30;99.90;;;;;;5061250;28;20154;-75
2022/12/29 04:43:14;;;;;;;6.85;1.95;;;10.30;99.90;;;;;;5046091;28;20447;-75
2022/12/29 04:45:44;;;;;;;7.38;1.90;;;10.30;99.90;;;;;;5061171;28;20036;-76
2022/12/29 04:48:09;;;;;;;8.93;1.95;;;10.30;99.90;;;;;;5063162;28;20578;-75
2022/12/29 04:50:35;;;;;;;8.43;2.22;;;10.10;99.90;;;;;;5043158;28;20119;-74
2022/12/29 04:53:01;;;;;;;6.30;2.05;;;10.10;99.90;;;;;;5045607;28;20031;-75
2022/12/29 04:55:26;;;;;;;6.93;2.03;;;10.00;99.90;;;;;;5045054;28;20040;-75
2022/12/29 04:57:52;;;;;;;4.35;1.67;;;10.00;99.90;;;;;;5060868;28;20029;-75
2022/12/29 05:00:18;;;;;;;7.03;2.20;;;10.00;99.90;;;;;;5061408;28;20055;-75
2022/12/29 05:02:43;;;;;;;7.85;2.10;;;10.00;99.90;;;;;;5061057;28;20068;-75
2022/12/29 05:05:09;;;;;;;7.57;2.17;;;10.00;99.90;;;;;;5044197;28;20059;-74
2022/12/29 05:07:35;;;;;;;10.57;2.70;;;9.90;99.90;;;;;;5042436;28;20076;-75
2022/12/29 05:10:01;;;;;;;13.88;2.58;;;9.80;99.90;;;;;;5045441;28;20079;-75
2022/12/29 05:12:30;;;;;;;7.22;2.90;;;9.80;99.90;;;;;;5062984;28;20041;-75
2022/12/29 05:14:56;;;;;;;9.63;2.70;;;9.80;99.90;;;;;;5060211;28;20575;-75
2022/12/29 05:17:21;;;;;;;8.73;2.60;;;9.80;99.90;;;;;;5060075;28;20135;-75
2022/12/29 05:19:47;;;;;;;10.07;2.30;;;9.80;99.90;;;;;;5062302;28;20120;-75
2022/12/29 05:22:12;;;;;;;11.65;3.35;;;9.80;99.90;;;;;;5064818;28;20435;-75
2022/12/29 05:24:38;;;;;;;8.15;2.50;;;9.70;99.90;;;;;;5046205;28;20102;-75
2022/12/29 05:27:04;;;;;;;10.23;2.72;;;9.70;99.90;;;;;;5063461;28;20040;-75
2022/12/29 05:29:29;;;;;;;9.38;2.47;;;9.60;99.90;;;;;;5064378;28;20455;-75
2022/12/29 05:31:55;;;;;;;12.38;2.60;;;9.60;99.90;;;;;;5047698;28;20130;-75
2022/12/29 05:34:20;;;;;;;7.22;2.70;;;9.60;99.90;;;;;;5063351;28;20123;-75
2022/12/29 05:36:46;;;;;;;9.13;2.50;;;9.60;99.90;;;;;;5066126;28;20037;-75
2022/12/29 05:39:11;;;;;;;10.55;2.92;;;9.50;99.90;;;;;;5062972;28;20040;-75
2022/12/29 05:41:37;;;;;;;13.82;2.90;;;9.50;99.90;;;;;;5063039;28;20063;-75
2022/12/29 05:44:03;;;;;;;10.93;3.05;;;9.50;99.90;;;;;;5066550;28;20041;-75
2022/12/29 05:46:29;;;;;;;10.95;2.80;;;9.50;99.90;;;;;;5064994;28;20039;-75
2022/12/29 05:48:54;;;;;;;10.63;2.63;;;9.50;99.90;;;;;;5047893;28;20044;-75
2022/12/29 05:51:20;;;;;;;10.77;2.60;;;9.50;99.90;;;;;;5048166;28;20086;-75
2022/12/29 05:53:45;;;;;;;14.45;3.08;;;9.50;99.90;;;;;;5047046;28;20044;-75
2022/12/29 05:56:11;;;;;;;8.43;2.58;;;9.50;99.90;;;;;;5046181;28;20039;-75
2022/12/29 05:58:36;;;;;;;10.88;3.05;;;9.60;99.90;;;;;;5065496;28;20488;-75
2022/12/29 06:01:02;;;;;;;10.45;3.22;;;9.60;99.90;;;;;;5064375;28;20032;-74
2022/12/29 06:03:28;;;;;;;11.15;2.72;;;9.60;99.90;;;;;;5073616;28;20083;-75
2022/12/29 06:05:53;;;;;;;14.20;2.92;;;9.70;99.90;;;;;;5045079;28;20135;-75
2022/12/29 06:08:19;;;;;;;10.73;2.85;;;9.60;99.90;;;;;;5047991;28;20106;-75
2022/12/29 06:10:44;;;;;;;12.05;2.90;;;9.70;99.90;;;;;;5059489;28;20119;-75
2022/12/29 06:13:10;;;;;;;11.75;3.03;;;9.60;99.90;;;;;;5060539;28;20202;-75
2022/12/29 06:15:36;;;;;;;9.85;2.50;;;9.60;99.90;;;;;;5064985;28;20040;-75
2022/12/29 06:18:02;;;;;;;12.55;3.33;;;9.70;99.90;;;;;;5075080;28;20044;-75
2022/12/29 06:20:28;;;;;;;12.45;2.45;;;9.70;99.90;;;;;;5064076;28;20036;-75
2022/12/29 06:22:53;;;;;;;13.57;3.22;;;9.70;99.90;;;;;;5065250;28;20423;-75
2022/12/29 06:25:19;;;;;;;10.30;2.63;;;9.60;99.90;;;;;;5061752;28;20044;-75
2022/12/29 06:27:44;;;;;;;10.50;3.00;;;9.60;99.90;;;;;;5061222;28;20040;-75
2022/12/29 06:30:11;;;;;;;12.95;2.70;;;9.60;99.90;;;;;;5053387;28;20036;-75
2022/12/29 06:32:37;;;;;;;15.80;3.20;;;9.70;99.90;;;;;;5044525;28;20032;-75
2022/12/29 06:35:03;;;;;;;15.57;3.40;;;9.70;99.90;;;;;;5075764;28;20400;-75
2022/12/29 06:37:29;;;;;;;13.57;2.75;;;9.60;99.90;;;;;;5059982;28;20040;-75
2022/12/29 06:39:55;;;;;;;11.88;2.88;;;9.60;99.90;;;;;;5064677;28;20525;-75
2022/12/29 06:42:20;;;;;;;16.42;3.03;;;9.60;99.90;;;;;;5064606;28;20056;-75
2022/12/29 06:44:46;;;;;;;11.65;2.90;;;9.60;99.90;;;;;;5063260;28;20056;-75
2022/12/29 06:47:12;;;;;;;10.93;2.90;;;9.50;99.90;;;;;;5058156;28;20042;-75
2022/12/29 06:49:37;;;;;;;11.00;2.92;;;9.50;99.90;;;;;;5047130;28;20225;-75
2022/12/29 06:52:04;;;;;;;12.25;2.75;;;9.50;99.90;;;;;;5047130;28;20457;-75
2022/12/29 06:54:30;;;;;;;16.25;3.30;;;9.40;99.90;;;;;;5053186;28;20068;-75
2022/12/29 06:56:56;;;;;;;12.18;2.58;;;9.40;99.90;;;;;;5065731;28;20115;-75
2022/12/29 06:59:22;;;;;;;10.90;2.97;;;9.40;99.90;;;;;;5047784;28;20579;-75
2022/12/29 07:01:47;;;;;;;11.90;2.53;;;9.40;99.90;;;;;;5062831;28;20074;-75
2022/12/29 07:04:13;;;;;;;10.23;2.65;;;9.40;99.90;;;;;;5062492;28;20043;-75
2022/12/29 07:06:40;;;;;;;15.27;2.58;;;9.40;99.90;;;;;;5047201;28;20127;-75
2022/12/29 07:09:06;;;;;;;16.65;2.92;;;9.40;99.90;;;;;;5064315;28;20040;-75
2022/12/29 07:11:32;;;;;;;16.33;3.20;;;9.40;99.90;;;;;;5076680;28;20404;-75
2022/12/29 07:13:57;;;;;;;13.52;3.05;;;9.40;99.90;;;;;;5063640;28;20056;-75
2022/12/29 07:16:23;;;;;;;13.10;3.10;;;9.40;99.90;;;;;;5047233;28;20044;-74
2022/12/29 07:18:49;;;;;;;16.63;3.20;;;9.40;99.90;;;;;;5044067;28;20071;-75
2022/12/29 07:21:14;;;;;;;13.32;2.88;;;9.40;99.90;;;;;;5056172;28;20524;-74
2022/12/29 07:23:40;;;;;;;10.18;2.88;;;9.50;99.90;;;;;;5062251;28;20049;-75
2022/12/29 07:26:09;;;;;;;14.77;3.25;;;9.60;99.90;;;;;;5062450;28;20088;-75
2022/12/29 07:28:35;;;;;;;15.40;3.17;;;9.60;99.90;;;;;;5061675;28;20131;-74
2022/12/29 07:31:01;;;;;;;13.25;3.13;;;9.60;99.90;;;;;;5044711;28;20051;-75
2022/12/29 07:33:31;;;;;;;11.27;3.40;;;9.60;99.90;;;;;;5061306;28;20033;-75
2022/12/29 07:35:58;;;;;;;13.43;3.30;;;9.60;99.90;;;;;;5043171;28;20036;-75
2022/12/29 07:38:23;;;;;;;12.25;3.42;;;9.60;99.90;;;;;;5064094;28;20032;-75
2022/12/29 07:40:49;;;;;;;11.68;2.78;;;9.70;99.90;;;;;;5056615;28;20052;-75
2022/12/29 07:43:14;;;;;;;14.23;3.28;;;9.70;99.90;;;;;;5046310;28;20045;-75
2022/12/29 07:45:40;;;;;;;17.75;3.60;;;9.70;99.90;;;;;;5046359;28;20043;-75
2022/12/29 07:48:09;;;;;;;13.52;3.13;;;9.70;99.90;;;;;;5071970;28;20492;-75
2022/12/29 07:50:35;;;;;;;12.25;3.47;;;9.70;99.90;;;;;;5046236;28;20508;-75
2022/12/29 07:53:02;;;;;;;10.60;3.00;;;9.70;99.90;;;;;;5060692;28;20036;-75
2022/12/29 07:55:29;;;;;;;16.63;3.65;;;9.70;99.90;;;;;;5062882;28;20159;-75
2022/12/29 07:57:55;;;;;;;12.93;4.05;;;9.80;99.90;;;;;;5060787;28;20036;-74
2022/12/29 08:00:21;;;;;;;12.20;3.40;;;9.70;99.90;;;;;;5045184;28;20154;-75
2022/12/29 08:02:47;;;;;;;15.15;3.92;;;9.60;99.90;;;;;;5045415;28;20044;-75
2022/12/29 08:05:12;;;;;;;17.98;3.83;;;9.60;99.90;;;;;;5062344;28;20051;-75
2022/12/29 08:07:38;;;;;;;15.00;3.42;;;9.60;99.90;;;;;;5043653;28;20047;-75
2022/12/29 08:10:04;;;;;;;14.35;3.60;;;9.60;99.90;;;;;;5058154;28;20047;-74
2022/12/29 08:12:30;;;;;;;17.23;3.45;;;9.70;99.90;;;;;;5059494;28;20036;-75
2022/12/29 08:14:55;;;;;;;13.45;3.33;;;9.70;99.90;;;;;;5059211;28;20503;-75
2022/12/29 08:17:21;;;;;;;14.20;3.30;;;9.70;99.90;;;;;;5052616;28;20766;-74
2022/12/29 08:19:47;;;;;;;16.25;4.60;;;9.70;99.90;;;;;;5062965;28;20504;-74
2022/12/29 08:22:14;;;;;;;15.07;3.80;;;9.70;99.90;;;;;;5062696;28;20045;-75
2022/12/29 08:24:40;;;;;;;11.57;3.35;;;9.70;99.90;;;;;;5063522;28;20048;-75
2022/12/29 08:27:05;;;;;;;15.52;3.22;;;9.80;99.90;;;;;;5059886;28;20060;-75
2022/12/29 08:29:31;;;;;;;14.40;2.97;;;9.80;99.90;;;;;;5043586;28;20075;-75
2022/12/29 08:31:56;;;;;;;15.77;3.97;;;9.80;99.90;;;;;;5056622;28;20040;-75
2022/12/29 08:34:22;;;;;;;19.50;3.67;;;9.70;99.90;;;;;;5059937;28;20407;-75
2022/12/29 08:36:48;;;;;;;15.73;3.80;;;9.70;99.90;;;;;;5053609;28;20045;-75
2022/12/29 08:39:13;;;;;;;13.85;3.15;;;9.70;99.90;;;;;;5061266;28;20040;-75
2022/12/29 08:41:39;;;;;;;14.15;3.03;;;9.50;99.90;;;;;;5045232;28;21361;-75
2022/12/29 08:44:05;;;;;;;21.10;3.60;;;9.50;99.90;;;;;;5058835;28;20056;-75
2022/12/29 08:46:30;;;;;;;18.92;3.90;;;9.50;99.90;;;;;;5042572;28;20048;-75
2022/12/29 08:48:56;;;;;;;20.60;3.58;;;9.50;99.90;;;;;;5061521;28;20119;-75
2022/12/29 08:51:22;;;;;;;19.85;4.00;;;9.40;99.90;;;;;;5057906;28;20526;-75
2022/12/29 08:53:48;;;;;;;13.35;3.00;;;9.40;99.90;;;;;;5063559;28;20570;-75
2022/12/29 08:56:13;;;;;;;17.15;3.83;;;9.40;99.90;;;;;;5074316;28;20139;-75
2022/12/29 08:58:39;;;;;;;21.00;3.58;;;9.40;99.90;;;;;;5049640;28;20044;-75
2022/12/29 09:01:05;;;;;;;21.27;3.75;;;9.40;99.90;;;;;;5065668;28;20047;-75
2022/12/29 09:03:30;;;;;;;25.08;3.92;;;9.40;99.90;;;;;;5065633;28;20507;-75
2022/12/29 09:05:56;;;;;;;13.93;3.38;;;9.40;99.90;;;;;;5065968;28;20055;-75
2022/12/29 09:08:22;;;;;;;24.02;4.07;;;9.40;99.90;;;;;;5047993;28;20489;-75
2022/12/29 09:10:48;;;;;;;21.48;3.88;;;9.50;99.90;;;;;;5060773;28;20132;-74
2022/12/29 09:13:14;;;;;;;21.60;4.50;;;9.50;99.90;;;;;;5064396;28;20123;-77
2022/12/29 09:15:40;;;;;;;21.05;4.50;;;9.50;99.90;;;;;;5060221;28;20040;-76
2022/12/29 09:18:08;;;;;;;21.17;4.43;;;9.50;99.90;;;;;;5062496;28;20029;-77
2022/12/29 09:20:34;;;;;;;16.30;3.20;;;9.60;99.90;;;;;;5045797;28;20055;-76
2022/12/29 09:23:01;;;;;;;21.95;3.78;;;9.60;99.90;;;;;;5062600;28;20106;-77
2022/12/29 09:25:27;;;;;;;22.15;3.92;;;9.60;99.90;;;;;;5063343;28;20044;-77
2022/12/29 09:27:53;;;;;;;15.82;3.75;;;9.60;99.90;;;;;;5055539;28;20107;-77
2022/12/29 09:30:20;;;;;;;18.35;3.53;;;9.50;99.90;;;;;;5062699;28;20062;-74
2022/12/29 09:32:47;;;;;;;13.25;3.50;;;9.50;99.90;;;;;;5052703;28;20047;-76
2022/12/29 09:35:14;;;;;;;17.05;3.95;;;9.50;99.90;;;;;;5039084;28;21423;-76
2022/12/29 09:37:39;;;;;;;19.58;4.15;;;9.50;99.90;;;;;;5041625;28;20036;-75
2022/12/29 09:40:06;;;;;;;19.00;4.07;;;9.50;99.90;;;;;;5067095;28;20048;-74
2022/12/29 09:42:50;;;;;;;15.57;3.70;;;9.50;99.90;;;;;;5047494;28;20045;-74
2022/12/29 09:45:41;;;;;;;15.43;3.57;;;9.40;99.90;;;;;;5065493;28;20045;-75
2022/12/29 09:48:13;;;;;;;12.10;3.30;;;9.40;99.90;;;;;;5065368;28;20047;-75
2022/12/29 09:50:40;;;;;;;18.63;3.50;;;9.40;99.90;;;;;;5032447;28;20066;-75
2022/12/29 09:53:22;;;;;;;10.65;3.28;;;9.50;99.90;;;;;;5056692;28;20058;-75
2022/12/29 09:55:51;;;;;;;17.10;3.00;;;9.50;99.90;;;;;;5059912;28;20067;-75
2022/12/29 09:58:29;;;;;;;16.00;3.20;;;9.50;99.90;;;;;;5046724;28;20127;-75
2022/12/29 10:01:03;;;;;;;13.15;3.00;;;9.50;99.90;;;;;;5047778;28;20059;-75
2022/12/29 10:03:40;;;;;;;;;;;9.50;99.90;;;;;;5065501;28;20134;-74
2022/12/29 10:06:20;;;;;;;14.38;3.40;;;9.50;99.90;;;;;;5062182;28;19920;-75
2022/12/29 10:08:48;;;;;;;16.38;3.78;;;9.40;99.90;;;;;;5047268;28;20131;-75
2022/12/29 10:11:31;;;;;;;18.98;4.03;;;9.40;99.90;;;;;;5049016;28;20059;-75
2022/12/29 10:14:02;;;;;;;13.63;3.38;;;9.30;99.90;;;;;;5062897;28;20116;-75
2022/12/29 10:17:05;;;;;;;8.05;3.03;;;9.20;99.90;;;;;;5061847;28;20390;-75
2022/12/29 10:19:31;;;;;;;17.23;3.38;;;9.10;99.90;;;;;;5047711;28;20044;-75
2022/12/29 10:22:05;;;;;;;15.10;3.05;;;9.10;99.90;;;;;;5060149;28;20071;-75
2022/12/29 10:24:34;;;;;;;15.07;3.72;;;9.10;99.90;;;;;;5060138;28;20067;-76
2022/12/29 10:27:00;;;;;;;15.15;3.35;;;9.00;99.90;;;;;;5046844;28;20040;-75
2022/12/29 10:29:36;;;;;;;11.35;3.50;;;9.00;99.90;;;;;;5049748;28;20036;-75
2022/12/29 10:32:10;;;;;;;16.98;3.70;;;8.90;99.90;;;;;;5062344;28;20051;-75
2022/12/29 10:34:47;;;;;;;16.45;3.50;;;8.90;99.90;;;;;;5046942;28;20037;-75
2022/12/29 10:37:42;;;;;;;14.30;4.10;;;8.90;99.90;;;;;;5065957;28;20041;-75
2022/12/29 10:40:26;;;;;;;12.43;3.03;;;8.90;99.90;;;;;;5025502;28;20506;-75
2022/12/29 10:42:55;;;;;;;15.40;3.85;;;8.90;99.90;;;;;;5059493;28;20049;-75
2022/12/29 10:45:24;;;;;;;14.15;3.40;;;9.00;99.90;;;;;;5064314;28;20115;-76
2022/12/29 10:48:16;;;;;;;17.65;3.75;;;9.00;99.90;;;;;;5060871;28;20040;-75
2022/12/29 10:50:42;;;;;;;14.63;3.70;;;9.00;99.90;;;;;;5042670;28;20036;-75
2022/12/29 10:53:19;;;;;;;17.83;3.92;;;9.00;99.90;;;;;;5063823;28;20047;-75
2022/12/29 10:55:45;;;;;;;23.98;4.65;;;9.00;99.90;;;;;;5046237;28;20053;-75
2022/12/29 10:58:14;;;;;;;20.65;4.50;;;9.10;99.90;;;;;;5062770;28;20040;-76
2022/12/29 11:00:40;;;;;;;14.43;3.88;;;9.20;99.90;;;;;;5047104;28;20040;-75
2022/12/29 11:03:44;;;;;;;13.45;4.15;;;9.30;99.90;;;;;;5047374;28;20039;-75
2022/12/29 11:06:17;;;;;;;18.90;3.90;;;9.30;99.90;;;;;;5063021;28;20063;-75
2022/12/29 11:09:01;;;;;;;18.90;4.68;;;9.40;99.90;;;;;;5064304;28;20045;-74
2022/12/29 11:11:34;;;;;;;22.93;4.33;;;9.50;99.90;;;;;;5056407;28;20123;-75
2022/12/29 11:14:17;;;;;;;25.08;4.75;;;9.50;99.90;;;;;;5047843;28;20036;-75
2022/12/29 11:16:44;;;;;;;21.67;4.53;;;9.50;99.90;;;;;;5062327;28;20037;-74
2022/12/29 11:19:28;;;;;;;20.58;4.32;;;9.60;99.90;;;;;;5064744;28;20086;-74
2022/12/29 11:21:54;;;;;;;20.40;5.03;;;9.50;99.90;;;;;;5061580;28;20048;-75
2022/12/29 11:24:29;;;;;;;19.00;3.72;;;9.50;99.90;;;;;;5074860;28;20048;-74
2022/12/29 11:27:15;;;;;;;18.00;4.10;;;9.60;99.90;;;;;;5053405;28;20063;-74
2022/12/29 11:29:42;;;;;;;23.30;4.72;;;9.60;99.90;;;;;;5039890;28;20048;-74
2022/12/29 11:32:20;;;;;;;16.98;4.18;;;9.60;99.90;;;;;;5055159;28;20041;-74
2022/12/29 11:34:47;;;;;;;23.85;4.13;;;9.70;99.90;;;;;;5059584;28;20045;-74
2022/12/29 11:37:17;;;;;;;18.77;4.07;;;9.70;99.90;;;;;;5061425;28;20036;-74
2022/12/29 11:40:04;;;;;;;19.98;3.83;;;9.70;99.90;;;;;;5043786;28;20521;-73
2022/12/29 11:42:42;;;;;;;17.85;3.92;;;9.70;99.90;;;;;;5060452;28;20053;-75
2022/12/29 11:45:14;;;;;;;22.20;4.22;;;9.70;99.90;;;;;;5060194;28;20075;-74
2022/12/29 11:48:03;;;;;;;19.10;3.97;;;9.70;99.90;;;;;;5048476;28;20040;-74
2022/12/29 11:50:35;;;;;;;17.95;3.78;;;9.80;99.90;;;;;;5041566;28;20060;-76
2022/12/29 11:53:05;;;;;;;17.05;3.75;;;9.80;99.90;;;;;;5045982;28;20169;-76
2022/12/29 11:55:31;;;;;;;17.60;4.80;;;9.90;99.90;;;;;;5063270;28;20127;-76
2022/12/29 11:58:02;;;;;;;25.02;4.97;;;9.90;99.90;;;;;;5045136;28;20454;-76
2022/12/29 12:00:30;;;;;;;20.08;4.68;;;10.00;99.90;;;;;;5057852;28;20607;-76
2022/12/29 12:03:07;;;;;;;22.38;4.30;;;10.00;99.90;;;;;;5062825;28;20049;-76
2022/12/29 12:06:02;;;;;;;18.60;4.00;;;10.00;99.90;;;;;;5046410;28;20045;-76
2022/12/29 12:08:55;;;;;;;19.33;4.77;;;10.10;99.90;;;;;;5062786;28;20498;-75
2022/12/29 12:11:33;;;;;;;21.05;4.50;;;10.10;99.90;;;;;;5060137;28;20080;-76
2022/12/29 12:14:23;;;;;;;19.50;4.88;;;10.10;99.90;;;;;;5058684;28;20086;-76
2022/12/29 12:17:10;;;;;;;20.88;4.45;;;10.10;99.90;;;;;;5037079;28;20044;-75
2022/12/29 12:20:22;;;;;;;24.92;4.97;;;10.20;99.90;;;;;;5062099;28;20059;-76
2022/12/29 12:23:00;;;;;;;18.60;4.80;;;10.20;99.90;;;;;;4988211;28;20631;-75
2022/12/29 12:25:36;;;;;;;22.05;4.97;;;10.20;99.90;;;;;;5003473;28;20053;-75
2022/12/29 12:28:11;;;;;;;19.75;3.65;;;10.10;99.90;;;;;;5004472;28;20053;-75
2022/12/29 12:30:40;;;;;;;;;;;10.00;99.90;;;;;;5024456;28;20053;-75
2022/12/29 12:33:22;;;;;;;18.60;3.67;;;9.90;99.90;;;;;;4993700;28;20017;-75
2022/12/29 12:36:15;;;;;;;17.85;3.95;;;9.90;99.90;;;;;;5009254;28;20041;-76
2022/12/29 12:38:40;;;;;;;23.35;4.32;;;9.80;99.90;;;;;;4992505;28;20068;-75
2022/12/29 12:41:20;;;;;;;19.02;4.07;;;9.80;99.90;;;;;;5025752;28;20731;-76
2022/12/29 12:44:03;;;;;;;18.95;3.70;;;9.70;99.90;;;;;;5010608;28;20571;-75
2022/12/29 12:46:43;;;;;;;20.77;4.43;;;9.70;99.90;;;;;;5010055;28;20453;-75
2022/12/29 12:49:45;;;;;;;14.52;3.65;;;9.80;99.90;;;;;;5025795;28;20048;-76
2022/12/29 12:52:29;;;;;;;14.43;3.03;;;9.80;99.90;;;;;;4994670;28;20072;-76
2022/12/29 12:55:02;;;;;;;15.50;3.00;;;9.70;99.90;;;;;;5009378;28;20076;-76
2022/12/29 12:57:55;;;;;;;9.85;2.75;;;9.80;99.90;;;;;;5059355;28;20385;-75
2022/12/29 13:00:23;;;;;;;15.95;3.17;;;9.70;99.90;;;;;;5064553;28;20087;-75
2022/12/29 13:03:17;;;;;;;11.10;2.70;;;9.70;99.90;;;;;;5049792;28;20446;-75
2022/12/29 13:06:00;;;;;;;11.52;2.70;;;9.70;99.90;;;;;;5050735;28;20037;-75
2022/12/29 13:08:29;;;;;;;12.27;3.33;;;9.70;99.90;;;;;;5063646;28;20048;-75
2022/12/29 13:11:09;;;;;;;11.50;2.30;;;9.70;99.90;;;;;;5065589;28;20444;-76
2022/12/29 13:13:53;;;;;;;11.43;2.97;;;9.70;99.90;;;;;;5065062;28;20385;-75
2022/12/29 13:16:33;;;;;;;12.60;3.20;;;9.70;99.90;;;;;;5051191;28;20090;-75
2022/12/29 13:19:25;;;;;;;10.70;3.05;;;9.70;99.90;;;;;;5064927;28;20040;-75
2022/12/29 13:22:04;;;;;;;11.52;3.00;;;9.80;99.90;;;;;;5050512;28;20534;-75
2022/12/29 13:25:04;;;;;;;9.35;2.80;;;9.70;99.90;;;;;;5050500;28;20412;-75
2022/12/29 13:27:43;;;;;;;12.07;2.78;;;9.70;99.90;;;;;;5048704;28;20044;-75
2022/12/29 13:30:12;;;;;;;12.48;2.80;;;9.70;99.90;;;;;;5066691;28;20056;-75
2022/12/29 13:32:38;;;;;;;12.30;2.80;;;9.70;99.90;;;;;;5064889;28;20487;-75
2022/12/29 13:35:32;;;;;;;11.82;2.65;;;9.60;99.90;;;;;;5065602;28;20131;-75
2022/12/29 13:38:22;;;;;;;17.25;3.33;;;9.60;99.90;;;;;;5036428;28;20064;-75
2022/12/29 13:40:54;;;;;;;12.93;2.90;;;9.70;99.90;;;;;;5065223;28;20060;-75